Aviation Digital Data Service (ADDS)

Output produced by TAFs form (0928 UTC 25 October 2014)
found at http://www.aviationweather.gov/adds/tafs/
 
KSBY 250520Z 2506/2606 VRB06KT P6SM SKC 
     FM252200 25006KT P6SM SCT080